Terminal Aerodrome Forecast
Issued by NWS Newport/Morehead City, NC

Home | Current Version | Previous Version | Text Only | Print | Product List | Glossary Off
Versions: 1 2 3 4 5 6 7 8 9 10 11 12 13 14 15 16 17

000
FTUS42 KMHX 271121
TAFEWN
TAF
KEWN 271121Z 2712/2812 21005KT P6SM VCSH BKN040 OVC110
     FM271600 01008G15KT 3SM -RA BR OVC005
     FM280200 36010KT P6SM OVC015
     FM281000 33009KT P6SM OVC040=

USA.gov is the U.S. government's official web portal to all federal, state and local government web resources and services.